Denton, Maryland
Current Conditions -  °F | °C
As of 12:50 PM on Friday 21 Nov 2014 (Local Time) from KESN Reporting Station
Scattered Clouds Scattered Clouds  
Wind Chill: 29°   Ceiling: Unl
Heat Index: 37°   Visibility: 10mi
Dew Point: 12°   Wind: 14mph
Humidity: 36%   Direction: 330°NNW
Pressure: 30.47"   Gusts: 29mph
Location:  38.88°N, 75.83°W
Report Text: KESN 211750Z 33012G25KT 10SM SCT060 03/M11 A3047
Loading
Personal Weather Stations






























Interactive Weather Map New forecast layout! Learn more

10-Day Weather Forecast

Advertisements
Track Severe Weather on mobile